M I D A S
Marine Information and Data Acquisition System
Tripno 1666 of the Zeeleeuw from 2009-03-27 07:38:46 to 2009-03-27 11:29:19
Back to CruiseResearch ActivitiesStationsMapUnderway DataData graphs

EquipmentUnitsComments
TimeDGPSUTC
LatitudeDGPSDM.mWGS84
LongitudeDGPSDM.mWGS84
SpeedMeteo Stationm/sRelative wind speed
DirectionMeteo StationdegRelative wind direction
TemperatureMeteo Stationdeg CelciusAir temperature
PressureMeteo StationPaAtmospheric pressure
HumidityMeteo Station%Relative humidity
Missing or incorrect values are displayed as -999
Metereological data collected by the RV Zeeleeuw from 2009-03-27 07:39:53 to 2009-03-27 11:41:38
Time Latitude Longitude Speed Direction Temperature Pressure Humidity
2009-03-27 07:41 51°13.681 2°55.888 5 74 7.1 99930 68
2009-03-27 07:42 51°13.693 2°55.801 4 76 7.2 99930 68
2009-03-27 07:43 51°13.697 2°55.767 2.1 12 7.2 99940 67
2009-03-27 07:44 51°13.701 2°55.767 5 74 7.2 99930 67
2009-03-27 07:45 51°13.71 2°55.757 9.4 281 7.2 99930 66
2009-03-27 07:45 51°13.761 2°55.702 5.5 284 7.2 99940 66
2009-03-27 07:46 51°13.872 2°55.605 7.8 278 7.2 99940 67
2009-03-27 07:48 51°14.014 2°55.501 6.4 281 7.2 99920 67
2009-03-27 07:48 51°14.152 2°55.397 7.6 282 7.1 99930 67
2009-03-27 07:49 51°14.271 2°55.25 13.7 281 7.2 99920 69
2009-03-27 07:50 51°14.379 2°55.068 14.5 282 7 99890 68
2009-03-27 07:51 51°14.43 2°54.854 17.2 333 7 99880 67
2009-03-27 07:52 51°14.382 2°54.603 16.8 334 7 99880 67
2009-03-27 07:53 51°14.314 2°54.32 20.2 336 7 99910 69
2009-03-27 07:54 51°14.226 2°54.035 17.6 336 6.9 99910 67
2009-03-27 07:55 51°14.135 2°53.753 15.1 333 6.9 99920 66
2009-03-27 07:56 51°14.045 2°53.468 17.6 336 7 99920 68
2009-03-27 07:57 51°13.953 2°53.181 18.5 338 6.9 99900 67
2009-03-27 07:58 51°13.861 2°52.89 17.6 338 6.9 99920 66
2009-03-27 07:59 51°13.768 2°52.603 18.5 337 6.9 99920 67
2009-03-27 08:00 51°13.677 2°52.314 20.6 337 6.8 99920 66
2009-03-27 08:01 51°13.589 2°52.021 18.2 336 6.9 99930 68
2009-03-27 08:02 51°13.499 2°51.742 17 344 6.8 99910 67
2009-03-27 08:03 51°13.376 2°51.576 12.3 346 6.8 99900 65
2009-03-27 08:04 51°13.343 2°51.464 11.1 308 6.8 99940 67
2009-03-27 08:05 51°13.346 2°51.425 14.1 306 6.9 99940 68
2009-03-27 08:06 51°13.34 2°51.42 11.9 304 6.9 99960 69
2009-03-27 08:07 51°13.33 2°51.417 7.5 309 6.8 99960 67
2009-03-27 08:08 51°13.317 2°51.417 8 306 6.8 99960 66
2009-03-27 08:09 51°13.302 2°51.417 9.6 309 6.9 99950 67
2009-03-27 08:10 51°13.301 2°51.416 12.7 310 6.8 99950 66
2009-03-27 08:11 51°13.319 2°51.406 14.3 283 6.9 99960 68
2009-03-27 08:12 51°13.335 2°51.391 15.1 308 6.9 99950 67
2009-03-27 08:13 51°13.347 2°51.374 13.5 309 6.8 99950 65
2009-03-27 08:14 51°13.357 2°51.361 12.7 304 6.8 99970 65
2009-03-27 08:15 51°13.367 2°51.345 11.2 306 6.9 99950 66
2009-03-27 08:16 51°13.376 2°51.33 12.2 304 6.9 99940 67
2009-03-27 08:17 51°13.386 2°51.313 10.7 305 6.9 99940 66
2009-03-27 08:18 51°13.394 2°51.305 13.3 306 6.9 99940 67
2009-03-27 08:19 51°13.389 2°51.303 13.9 307 6.9 99960 66
2009-03-27 08:20 51°13.379 2°51.305 10.4 307 6.9 99980 67
2009-03-27 08:21 51°13.366 2°51.306 7.4 304 6.8 99970 64
2009-03-27 08:22 51°13.352 2°51.306 8.1 305 6.9 99960 66
2009-03-27 08:23 51°13.34 2°51.307 9 304 6.8 99960 67
2009-03-27 08:24 51°13.328 2°51.307 11.7 79 6.8 99960 67
2009-03-27 08:25 51°13.318 2°51.307 8.2 285 6.8 99960 67
2009-03-27 08:26 51°13.308 2°51.306 12.9 281 6.8 99970 68
2009-03-27 08:27 51°13.298 2°51.306 11.4 279 6.7 99980 66
2009-03-27 08:28 51°13.287 2°51.308 9.3 278 6.8 99980 67
2009-03-27 08:29 51°13.274 2°51.309 8.3 309 6.8 99980 67
2009-03-27 08:30 51°13.26 2°51.31 10.2 286 6.8 99960 68
2009-03-27 08:31 51°13.245 2°51.309 9 307 6.9 99960 70
2009-03-27 08:32 51°13.23 2°51.31 11.7 284 6.8 99980 68
2009-03-27 08:33 51°13.216 2°51.31 11 309 6.7 99960 67
2009-03-27 08:34 51°13.204 2°51.307 12.5 278 6.9 99970 70
2009-03-27 08:35 51°13.192 2°51.306 10.5 306 6.8 99950 70
2009-03-27 08:36 51°13.187 2°51.303 15.3 283 6.8 99980 71
2009-03-27 08:37 51°13.204 2°51.273 11 306 6.9 99960 71
2009-03-27 08:38 51°13.202 2°51.196 13.6 282 6.9 99940 72
2009-03-27 08:39 51°13.166 2°51.15 11.1 346 6.9 99940 71
2009-03-27 08:40 51°13.13 2°51.097 16.6 282 6.8 99960 72
2009-03-27 08:41 51°13.094 2°51.021 13.7 333 6.8 99960 70
2009-03-27 08:42 51°13.057 2°50.943 14.8 280 6.8 99950 71
2009-03-27 08:43 51°13.019 2°50.868 14.8 340 6.8 99960 72
2009-03-27 08:44 51°12.98 2°50.791 15.9 282 6.9 99950 71
2009-03-27 08:45 51°12.942 2°50.721 15.6 340 6.8 99950 70
2009-03-27 08:46 51°12.909 2°50.658 12.2 280 6.8 99950 70
2009-03-27 08:47 51°12.876 2°50.596 14.2 338 6.8 99950 69
2009-03-27 08:48 51°12.846 2°50.534 14.5 286 6.8 99950 69
2009-03-27 08:49 51°12.817 2°50.472 13.3 335 6.8 99940 68
2009-03-27 08:50 51°12.787 2°50.414 12.8 278 6.8 99950 68
2009-03-27 08:51 51°12.759 2°50.354 11.9 335 6.7 99940 67
2009-03-27 08:52 51°12.732 2°50.294 17.4 281 6.8 99950 68
2009-03-27 08:53 51°12.702 2°50.238 13.2 339 6.7 99940 66
2009-03-27 08:54 51°12.675 2°50.187 13.9 277 6.8 99950 66
2009-03-27 08:55 51°12.647 2°50.135 11 336 6.8 99950 68
2009-03-27 08:56 51°12.62 2°50.074 14.9 283 6.9 99950 70
2009-03-27 08:57 51°12.593 2°50.014 14 334 6.8 99950 69
2009-03-27 08:58 51°12.568 2°49.961 15.4 278 6.8 99960 69
2009-03-27 08:59 51°12.546 2°49.906 14.1 338 6.8 99950 67
2009-03-27 09:00 51°12.519 2°49.848 14.9 285 6.8 99950 68
2009-03-27 09:01 51°12.484 2°49.789 13.9 281 6.9 99950 69
2009-03-27 09:02 51°12.455 2°49.727 13.4 301 6.9 99960 68
2009-03-27 09:03 51°12.45 2°49.663 14.2 280 6.9 99950 68
2009-03-27 09:04 51°12.44 2°49.551 15.3 333 6.9 99950 67
2009-03-27 09:05 51°12.383 2°49.32 16.1 332 6.8 99940 66
2009-03-27 09:06 51°12.307 2°49.037 18.1 334 6.9 99940 66
2009-03-27 09:07 51°12.231 2°48.749 19.5 281 7 99950 67
2009-03-27 09:08 51°12.158 2°48.464 19.8 332 6.9 99950 67
2009-03-27 09:09 51°12.085 2°48.171 20 284 6.9 99950 66
2009-03-27 09:10 51°12.012 2°47.878 19 333 7 99950 66
2009-03-27 09:11 51°11.938 2°47.584 19.2 284 7 99950 66
2009-03-27 09:12 51°11.863 2°47.295 17.5 335 6.9 99940 66
2009-03-27 09:13 51°11.787 2°47.005 20.2 283 6.9 99940 65
2009-03-27 09:14 51°11.712 2°46.716 20 333 6.9 99960 65
2009-03-27 09:15 51°11.638 2°46.427 18.4 286 7 99940 65
2009-03-27 09:16 51°11.565 2°46.137 21.9 334 7 99950 66
2009-03-27 09:17 51°11.492 2°45.847 19.5 282 7 99950 65
2009-03-27 09:18 51°11.418 2°45.559 17.8 336 7 99950 65
2009-03-27 09:19 51°11.344 2°45.267 17.8 281 7 99930 64
2009-03-27 09:20 51°11.271 2°44.978 20.5 334 7 99940 65
2009-03-27 09:21 51°11.196 2°44.685 20.3 284 7 99940 66
2009-03-27 09:22 51°11.124 2°44.397 18.9 335 6.9 99940 65
2009-03-27 09:23 51°11.053 2°44.113 18 282 7 99930 70
2009-03-27 09:24 51°10.981 2°43.818 17.9 333 6.9 99940 69
2009-03-27 09:25 51°10.908 2°43.526 15.7 284 6.9 99940 66
2009-03-27 09:26 51°10.832 2°43.235 20.2 334 7 99930 68
2009-03-27 09:27 51°10.759 2°42.945 20.3 337 6.9 99930 64
2009-03-27 09:28 51°10.685 2°42.656 16.2 283 6.9 99950 63
2009-03-27 09:29 51°10.612 2°42.366 19.3 283 7 99940 66
2009-03-27 09:30 51°10.541 2°42.076 17.5 334 7 99940 68
2009-03-27 09:31 51°10.459 2°41.789 19.1 284 7 99940 67
2009-03-27 09:32 51°10.363 2°41.517 15.5 334 7 99950 68
2009-03-27 09:33 51°10.267 2°41.253 16.2 281 7 99950 70
2009-03-27 09:34 51°10.172 2°40.978 19.4 336 7 99950 68
2009-03-27 09:35 51°10.079 2°40.714 14.8 283 7 99960 70
2009-03-27 09:36 51°9.987 2°40.442 17.9 335 7 99960 68
2009-03-27 09:37 51°9.892 2°40.172 17.4 281 7 99960 67
2009-03-27 09:38 51°9.797 2°39.9 18.2 336 7.1 99950 69
2009-03-27 09:39 51°9.703 2°39.632 19.5 280 7 99960 68
2009-03-27 09:40 51°9.616 2°39.359 18.6 338 7 99960 67
2009-03-27 09:41 51°9.537 2°39.081 15.9 332 7.1 99960 70
2009-03-27 09:42 51°9.465 2°38.792 15.4 335 7.1 99960 70
2009-03-27 09:43 51°9.396 2°38.515 15.8 281 7.1 99960 70
2009-03-27 09:44 51°9.327 2°38.235 17.6 332 7.1 99960 70
2009-03-27 09:45 51°9.263 2°37.953 16.5 283 7 99960 66
2009-03-27 09:46 51°9.211 2°37.739 17.8 334 7 99960 66
2009-03-27 09:47 51°9.171 2°37.53 16.7 282 7 99960 65
2009-03-27 09:48 51°9.148 2°37.324 17 281 7.1 99960 67
2009-03-27 09:49 51°9.136 2°37.224 15.1 308 7 99970 66
2009-03-27 09:50 51°9.149 2°37.213 11.8 282 7.1 99950 68
2009-03-27 09:51 51°9.156 2°37.225 13.5 307 7.2 99970 70
2009-03-27 09:52 51°9.155 2°37.244 10 282 7.1 99980 69
2009-03-27 09:53 51°9.152 2°37.263 7.7 306 7.1 99980 70
2009-03-27 09:54 51°9.147 2°37.282 9.1 287 7 99970 68
2009-03-27 09:55 51°9.142 2°37.302 11.1 306 7.1 99980 69
2009-03-27 09:56 51°9.156 2°37.322 7.9 306 7 99970 67
2009-03-27 09:57 51°9.184 2°37.334 11.7 310 7.1 99970 69
2009-03-27 09:58 51°9.213 2°37.335 12.3 281 7.1 99960 70
2009-03-27 09:59 51°9.243 2°37.329 12.9 305 7.2 99970 71
2009-03-27 10:00 51°9.267 2°37.325 14.1 281 7.1 99960 69
2009-03-27 10:01 51°9.28 2°37.33 14.5 306 7.1 99960 69
2009-03-27 10:02 51°9.282 2°37.349 14.8 286 7.1 99970 69
2009-03-27 10:03 51°9.281 2°37.375 15.9 304 7.1 99960 69
2009-03-27 10:04 51°9.276 2°37.4 12.2 280 7.1 99980 69
2009-03-27 10:05 51°9.269 2°37.425 9.3 308 7 99970 68
2009-03-27 10:06 51°9.262 2°37.45 9.6 281 7 99980 68
2009-03-27 10:07 51°9.258 2°37.475 9.4 305 7 99970 69
2009-03-27 10:08 51°9.253 2°37.502 7.6 284 7.1 99980 71
2009-03-27 10:09 51°9.25 2°37.53 9.4 308 7.1 99970 70
2009-03-27 10:10 51°9.246 2°37.56 7.9 280 7.1 99970 70
2009-03-27 10:11 51°9.242 2°37.589 9.6 303 7.1 99980 71
2009-03-27 10:12 51°9.237 2°37.62 7.7 279 7.1 99970 70
2009-03-27 10:13 51°9.232 2°37.653 8.6 307 7.1 99980 69
2009-03-27 10:14 51°9.228 2°37.685 10.5 282 7.1 99960 69
2009-03-27 10:15 51°9.223 2°37.718 10.2 306 7.1 99970 70
2009-03-27 10:16 51°9.224 2°37.753 8.2 280 7.1 99980 69
2009-03-27 10:17 51°9.272 2°37.811 9.2 57 7.1 99970 71
2009-03-27 10:18 51°9.276 2°37.928 10.4 37 7.1 99940 68
2009-03-27 10:19 51°9.258 2°38.019 13.9 38 7.1 99930 66
2009-03-27 10:20 51°9.237 2°38.094 12.7 35 7.1 99920 66
2009-03-27 10:21 51°9.218 2°38.167 12.2 38 7.1 99920 67
2009-03-27 10:22 51°9.202 2°38.249 10.5 40 7.1 99930 68
2009-03-27 10:23 51°9.193 2°38.343 9.5 55 7.1 99940 68
2009-03-27 10:24 51°9.196 2°38.442 7 75 7.2 99950 70
2009-03-27 10:25 51°9.213 2°38.537 9.3 56 7.2 99950 69
2009-03-27 10:26 51°9.24 2°38.618 8.3 80 7.2 99950 72
2009-03-27 10:27 51°9.272 2°38.691 11.3 12 7.3 99950 72
2009-03-27 10:28 51°9.308 2°38.758 11.1 80 7.2 99940 70
2009-03-27 10:29 51°9.346 2°38.823 11.3 52 7.2 99940 70
2009-03-27 10:30 51°9.382 2°38.892 9.7 78 7.2 99940 71
2009-03-27 10:31 51°9.418 2°38.976 9 56 7.2 99950 71
2009-03-27 10:32 51°9.446 2°39.078 7.7 79 7.2 99940 71
2009-03-27 10:33 51°9.473 2°39.183 7.7 51 7.2 99940 70
2009-03-27 10:34 51°9.511 2°39.275 11.7 78 7.2 99930 72
2009-03-27 10:35 51°9.555 2°39.349 10.3 276 7.2 99930 72
2009-03-27 10:36 51°9.6 2°39.413 14 59 7.2 99930 72
2009-03-27 10:37 51°9.642 2°39.49 7.6 79 7.2 99930 70
2009-03-27 10:38 51°9.666 2°39.591 6.1 50 7.3 99930 70
2009-03-27 10:39 51°9.689 2°39.689 11.1 74 7.4 99920 68
2009-03-27 10:40 51°9.72 2°39.784 9.1 73 7.3 99930 68
2009-03-27 10:41 51°9.755 2°39.864 12.2 312 7.3 99930 69
2009-03-27 10:42 51°9.794 2°39.926 9.6 284 7.4 99920 70
2009-03-27 10:43 51°9.869 2°40.044 8.9 54 7.4 99920 69
2009-03-27 10:44 51°9.957 2°40.26 6.1 75 7.3 99920 69
2009-03-27 10:45 51°10.063 2°40.527 5.9 51 7.4 99920 71
2009-03-27 10:46 51°10.168 2°40.825 4.3 80 7.4 99910 71
2009-03-27 10:47 51°10.259 2°41.143 2.6 56 7.5 99910 72
2009-03-27 10:48 51°10.34 2°41.464 4.2 79 7.6 99910 72
2009-03-27 10:49 51°10.429 2°41.781 4.6 50 7.8 99900 71
2009-03-27 10:50 51°10.521 2°42.095 5 79 7.7 99910 69
2009-03-27 10:51 51°10.61 2°42.409 3 56 7.7 99900 71
2009-03-27 10:52 51°10.696 2°42.729 4.3 79 7.8 99900 70
2009-03-27 10:53 51°10.785 2°43.049 6.6 80 7.8 99900 70
2009-03-27 10:54 51°10.876 2°43.368 5.2 57 7.7 99900 69
2009-03-27 10:55 51°10.965 2°43.686 4.6 79 7.7 99890 68
2009-03-27 10:56 51°11.057 2°44.008 5.6 51 7.7 99890 69
2009-03-27 10:57 51°11.144 2°44.33 5.7 79 7.7 99890 69
2009-03-27 10:59 51°11.236 2°44.66 2.8 52 7.8 99890 69
2009-03-27 10:59 51°11.329 2°44.972 6 52 7.8 99890 70
2009-03-27 11:00 51°11.422 2°45.293 7.9 58 7.7 99880 70
2009-03-27 11:01 51°11.518 2°45.611 3.1 56 7.7 99900 70
2009-03-27 11:02 51°11.615 2°45.931 4.2 57 7.7 99890 70
2009-03-27 11:03 51°11.709 2°46.256 5.9 81 7.8 99890 71
2009-03-27 11:04 51°11.802 2°46.575 4.2 52 8 99890 70
2009-03-27 11:05 51°11.891 2°46.902 4.3 57 8.3 99900 70
2009-03-27 11:06 51°11.985 2°47.226 3.3 55 8.5 99890 68
2009-03-27 11:07 51°12.078 2°47.552 1.7 57 8.6 99900 68
2009-03-27 11:08 51°12.171 2°47.882 2.7 57 8.6 99890 70
2009-03-27 11:09 51°12.27 2°48.209 5.1 80 8.5 99900 70
2009-03-27 11:10 51°12.372 2°48.531 4.7 52 8.3 99900 69
2009-03-27 11:11 51°12.47 2°48.86 6 81 8.1 99890 67
2009-03-27 11:12 51°12.569 2°49.187 6.6 55 7.9 99890 68
2009-03-27 11:13 51°12.667 2°49.518 5.6 55 7.8 99880 68
2009-03-27 11:14 51°12.768 2°49.845 4.6 79 8 99890 68
2009-03-27 11:15 51°12.867 2°50.173 4 80 8.2 99880 67
2009-03-27 11:16 51°12.993 2°50.481 3.2 60 8.2 99890 67
2009-03-27 11:17 51°13.13 2°50.78 3.5 75 8.1 99890 68
2009-03-27 11:18 51°13.261 2°51.085 5.1 56 8 99890 70
2009-03-27 11:19 51°13.392 2°51.39 4.3 79 7.9 99880 70
2009-03-27 11:20 51°13.52 2°51.7 5 54 7.9 99870 70
2009-03-27 11:21 51°13.647 2°52.01 4.7 80 7.8 99870 71
2009-03-27 11:22 51°13.779 2°52.319 7.4 50 7.8 99870 70
2009-03-27 11:23 51°13.91 2°52.628 5.6 81 7.7 99880 69
2009-03-27 11:24 51°14.04 2°52.937 6.2 52 7.6 99870 69
2009-03-27 11:25 51°14.168 2°53.253 7 76 7.8 99870 68
2009-03-27 11:26 51°14.287 2°53.576 6.8 52 7.6 99870 66
2009-03-27 11:27 51°14.396 2°53.9 4.4 81 7.7 99860 67
2009-03-27 11:28 51°14.484 2°54.24 3.8 52 7.9 99870 70
2009-03-27 11:29 51°14.49 2°54.599 8.2 32 8.1 99860 67
2009-03-27 11:30 51°14.417 2°54.926 11.5 23 8 99850 69
2009-03-27 11:31 51°14.302 2°55.19 12.9 18 7.9 99840 69
2009-03-27 11:32 51°14.192 2°55.346 8.2 16 7.8 99850 71
2009-03-27 11:33 51°14.101 2°55.425 4.4 342 7.8 99860 69
2009-03-27 11:34 51°13.998 2°55.506 5.9 5 7.9 99860 68
2009-03-27 11:36 51°13.881 2°55.593 8 353 8 99850 65
2009-03-27 11:36 51°13.775 2°55.686 6.6 22 8.1 99860 65
2009-03-27 11:37 51°13.707 2°55.807 9.9 11 8.3 99860 64
2009-03-27 11:39 51°13.671 2°55.915 4.9 80 8.3 99870 64
2009-03-27 11:40 51°13.664 2°55.955 10.7 57 8.4 99870 63
2009-03-27 11:41 51°13.663 2°55.96 12.4 41 8.4 99870 63